Time;durP1;ratioP1;P1;durP2;ratioP2;P2;SDS_P1;SDS_P2;PMS_P1;PMS_P2;Temp;Humidity;BMP_temperature;BMP_pressure;BME280_temperature;BME280_humidity;BME280_pressure;Samples;Min_cycle;Max_cycle;Signal;HPM_P1;HPM_P2
2023/02/07 00:00:20;;;;;;;9.20;4.37;;;;;;;-3.39;100.00;98058.91;5056189;28;20220;-67
2023/02/07 00:02:48;;;;;;;5.43;3.37;;;;;;;-3.20;100.00;98063.41;5056780;28;20588;-67
2023/02/07 00:05:15;;;;;;;8.13;4.03;;;;;;;-3.15;100.00;98068.44;5055873;28;20193;-68
2023/02/07 00:07:41;;;;;;;13.27;5.47;;;;;;;-2.98;100.00;98059.22;5056177;28;20219;-67
2023/02/07 00:10:09;;;;;;;9.63;4.90;;;;;;;-2.89;100.00;98058.91;5056798;28;20220;-67
2023/02/07 00:12:36;;;;;;;11.70;5.53;;;;;;;-2.88;100.00;98055.44;5056714;28;20202;-66
2023/02/07 00:15:03;;;;;;;13.17;4.93;;;;;;;-2.80;100.00;98050.84;5055783;28;20266;-67
2023/02/07 00:17:30;;;;;;;7.57;4.20;;;;;;;-2.92;100.00;98049.53;5056146;28;20215;-67
2023/02/07 00:19:56;;;;;;;13.30;5.13;;;;;;;-2.96;100.00;98042.78;5056806;28;20225;-67
2023/02/07 00:22:23;;;;;;;9.53;5.40;;;;;;;-2.96;100.00;98049.69;5056535;28;20260;-68
2023/02/07 00:24:49;;;;;;;11.90;5.27;;;;;;;-2.91;100.00;98043.47;5055689;28;20202;-67
2023/02/07 00:27:16;;;;;;;16.87;6.53;;;;;;;-2.80;100.00;98043.09;5056342;28;20932;-66
2023/02/07 00:29:44;;;;;;;10.47;5.43;;;;;;;-2.86;100.00;98036.44;5056140;28;20203;-68
2023/02/07 00:32:10;;;;;;;9.13;4.30;;;;;;;-2.83;100.00;98035.47;5056223;28;20582;-67
2023/02/07 00:34:37;;;;;;;14.63;6.33;;;;;;;-2.98;100.00;98033.44;5055870;28;20334;-68
2023/02/07 00:37:04;;;;;;;17.23;6.43;;;;;;;-2.99;100.00;98024.84;5056346;28;20230;-67
2023/02/07 00:39:31;;;;;;;15.87;6.43;;;;;;;-3.10;100.00;98018.38;5055664;28;20717;-67
2023/02/07 00:41:58;;;;;;;13.53;6.07;;;;;;;-3.26;100.00;98024.09;5056853;28;20756;-68
2023/02/07 00:44:24;;;;;;;11.20;4.83;;;;;;;-3.20;100.00;98027.31;5055489;28;20879;-68
2023/02/07 00:46:52;;;;;;;8.83;4.80;;;;;;;-3.30;100.00;98022.53;5055748;28;20255;-67
2023/02/07 00:49:18;;;;;;;15.67;6.40;;;;;;;-3.51;100.00;98024.06;5056423;28;21007;-66
2023/02/07 00:51:45;;;;;;;14.13;6.77;;;;;;;-3.39;100.00;98020.25;5057326;28;20234;-67
2023/02/07 00:54:11;;;;;;;17.37;6.07;;;;;;;-3.43;100.00;98014.34;5055166;28;20201;-67
2023/02/07 00:56:38;;;;;;;15.43;7.07;;;;;;;-3.43;100.00;98014.34;5055678;28;20861;-66
2023/02/07 00:59:04;;;;;;;21.90;8.33;;;;;;;-3.71;100.00;98017.88;5056141;28;20236;-68
2023/02/07 01:01:31;;;;;;;13.67;6.87;;;;;;;-3.73;100.00;98035.09;5055683;28;20636;-66
2023/02/07 01:03:58;;;;;;;7.90;4.93;;;;;;;-3.77;100.00;98037.84;5055751;28;20580;-67
2023/02/07 01:06:26;;;;;;;18.40;7.47;;;;;;;-3.81;100.00;98041.41;5056090;28;20208;-67
2023/02/07 01:08:56;;;;;;;20.37;6.47;;;;;;;-3.66;100.00;98036.59;5059906;28;20194;-66
2023/02/07 01:11:23;;;;;;;22.13;7.20;;;;;;;-3.72;100.00;98041.94;5059463;28;20225;-68
2023/02/07 01:13:49;;;;;;;9.63;6.23;;;;;;;-3.78;100.00;98041.28;5058792;28;20206;-67
2023/02/07 01:16:20;;;;;;;23.23;6.93;;;;;;;-3.71;100.00;98051.34;5059791;28;20271;-67
2023/02/07 01:18:46;;;;;;;18.13;6.60;;;;;;;-3.90;100.00;98067.44;5060054;28;20224;-66
2023/02/07 01:21:19;;;;;;;16.17;6.57;;;;;;;-3.78;100.00;98061.88;5059476;28;20229;-68
2023/02/07 01:23:45;;;;;;;16.00;6.60;;;;;;;-3.83;100.00;98074.06;5058712;28;20992;-66
2023/02/07 01:26:12;;;;;;;11.27;5.80;;;;;;;-3.77;100.00;98067.00;5059821;28;20230;-67
2023/02/07 01:28:38;;;;;;;10.63;6.23;;;;;;;-3.63;100.00;98057.09;5059230;28;20240;-67
2023/02/07 01:31:08;;;;;;;13.23;6.73;;;;;;;-3.74;100.00;98060.91;5059446;28;20226;-67
2023/02/07 01:33:35;;;;;;;15.43;7.90;;;;;;;-3.74;100.00;98064.34;5059276;28;20324;-67
2023/02/07 01:36:06;;;;;;;14.97;5.60;;;;;;;-3.59;100.00;98059.56;5059515;28;20889;-66
2023/02/07 01:38:34;;;;;;;9.33;4.37;;;;;;;-3.73;100.00;98070.31;5059429;28;20290;-67
2023/02/07 01:41:00;;;;;;;12.80;3.60;;;;;;;-3.79;100.00;98070.50;5060038;28;20783;-67
2023/02/07 01:43:27;;;;;;;10.93;4.53;;;;;;;-3.89;100.00;98069.13;5059028;28;20201;-67
2023/02/07 01:45:53;;;;;;;14.57;6.70;;;;;;;-3.82;100.00;98068.84;5058667;28;20277;-67
2023/02/07 01:48:23;;;;;;;10.47;5.53;;;;;;;-3.76;100.00;98063.53;5059158;28;20202;-68
2023/02/07 01:50:52;;;;;;;20.23;7.13;;;;;;;-3.72;100.00;98061.72;5059483;28;20223;-68
2023/02/07 01:53:22;;;;;;;14.07;6.67;;;;;;;-3.74;100.00;98037.72;5059196;28;20206;-67
2023/02/07 01:55:54;;;;;;;19.13;7.90;;;;;;;-3.76;100.00;98044.66;5059096;28;20239;-67
2023/02/07 01:58:21;;;;;;;13.63;7.10;;;;;;;-3.63;100.00;98039.94;5059391;28;20205;-67
2023/02/07 02:00:49;;;;;;;12.17;6.40;;;;;;;-3.73;100.00;98045.41;5058498;28;20646;-67
2023/02/07 02:03:16;;;;;;;12.20;5.17;;;;;;;-3.68;100.00;98042.69;5058791;28;20205;-67
2023/02/07 02:05:43;;;;;;;14.43;6.97;;;;;;;-3.63;100.00;98057.97;5058521;28;20266;-67
2023/02/07 02:08:10;;;;;;;18.37;7.17;;;;;;;-3.84;100.00;98056.94;5058516;28;20216;-68
2023/02/07 02:10:55;;;;;;;16.90;8.37;;;;;;;-3.91;100.00;98063.16;5058575;28;20220;-67
2023/02/07 02:13:27;;;;;;;8.73;3.90;;;;;;;-4.01;100.00;98066.88;5058989;28;20310;-67
2023/02/07 02:16:06;;;;;;;17.20;4.30;;;;;;;-3.88;100.00;98075.94;5058353;28;20216;-67
2023/02/07 02:18:54;;;;;;;11.60;6.20;;;;;;;-3.86;100.00;98079.31;5058127;28;20197;-67
2023/02/07 02:22:00;;;;;;;10.63;4.77;;;;;;;-3.93;100.00;98082.97;5058410;28;20657;-68
2023/02/07 02:24:55;;;;;;;6.67;3.87;;;;;;;-4.06;100.00;98071.31;5057373;28;20204;-67
2023/02/07 02:27:40;;;;;;;15.87;7.27;;;;;;;-3.90;100.00;98075.16;5058345;28;20597;-68
2023/02/07 02:30:35;;;;;;;16.60;6.43;;;;;;;-3.91;100.00;98084.59;5058609;28;20270;-67
2023/02/07 02:33:32;;;;;;;10.90;5.37;;;;;;;-3.90;100.00;98100.91;5058185;28;20201;-67
2023/02/07 02:36:10;;;;;;;18.53;4.97;;;;;;;-3.96;100.00;98108.78;5055490;28;20204;-67
2023/02/07 02:38:46;;;;;;;9.67;5.60;;;;;;;-3.88;100.00;98109.41;5058562;28;20204;-67
2023/02/07 02:41:18;;;;;;;15.20;6.53;;;;;;;-3.87;100.00;98111.97;5057781;28;20220;-66
2023/02/07 02:43:46;;;;;;;14.03;5.67;;;;;;;-4.01;100.00;98114.09;5057511;28;20206;-67
2023/02/07 02:46:18;;;;;;;10.17;6.60;;;;;;;-3.82;100.00;98111.81;5058333;28;20207;-67
2023/02/07 02:48:45;;;;;;;11.60;5.73;;;;;;;-3.99;100.00;98106.31;5057896;28;20205;-67
2023/02/07 02:51:13;;;;;;;14.27;7.00;;;;;;;-4.10;100.00;98106.63;5057922;28;20217;-68
2023/02/07 02:53:39;;;;;;;15.27;5.57;;;;;;;-4.12;100.00;98103.25;5057179;28;20258;-67
2023/02/07 02:56:18;;;;;;;11.40;5.67;;;;;;;-3.92;100.00;98100.94;5058305;28;20257;-67
2023/02/07 02:59:03;;;;;;;11.97;5.83;;;;;;;-3.97;100.00;98107.09;5058140;28;20200;-66
2023/02/07 03:01:40;;;;;;;15.27;6.33;;;;;;;-4.04;100.00;98106.44;5057915;28;20220;-67
2023/02/07 03:04:36;;;;;;;16.23;7.80;;;;;;;-3.99;100.00;98098.59;5057150;28;20200;-65
2023/02/07 03:07:18;;;;;;;14.07;6.13;;;;;;;-3.89;100.00;98098.28;5058171;28;20647;-66
2023/02/07 03:09:54;;;;;;;11.27;4.70;;;;;;;-3.86;100.00;98099.91;5057554;28;20234;-67
2023/02/07 03:12:25;;;;;;;14.53;6.70;;;;;;;-3.92;100.00;98092.38;5057657;28;20291;-67
2023/02/07 03:15:01;;;;;;;15.07;7.17;;;;;;;-4.06;99.86;98091.91;5057005;28;20196;-66
2023/02/07 03:17:34;;;;;;;14.10;5.43;;;;;;;-3.94;100.00;98096.72;5058317;28;20200;-66
2023/02/07 03:20:08;;;;;;;22.23;7.30;;;;;;;-3.97;98.57;98101.94;5056973;28;20233;-66
2023/02/07 03:22:37;;;;;;;10.43;5.73;;;;;;;-4.40;100.00;98106.66;5057061;28;20201;-66
2023/02/07 03:25:05;;;;;;;15.37;7.30;;;;;;;-4.26;99.75;98107.13;5056768;28;20238;-67
2023/02/07 03:27:34;;;;;;;10.33;5.37;;;;;;;-4.21;97.55;98116.38;5056889;28;20241;-67
2023/02/07 03:30:04;;;;;;;14.37;6.20;;;;;;;-4.41;98.54;98115.25;5054222;28;20193;-65
2023/02/07 03:32:34;;;;;;;16.67;6.67;;;;;;;-4.27;98.25;98117.44;5056976;28;20207;-65
2023/02/07 03:35:06;;;;;;;15.53;7.30;;;;;;;-4.26;98.22;98096.81;5056602;28;20208;-65
2023/02/07 03:37:39;;;;;;;12.27;5.57;;;;;;;-4.22;97.89;98088.13;5056495;28;20204;-65
2023/02/07 03:40:07;;;;;;;10.23;5.13;;;;;;;-4.30;97.25;98086.63;5057192;28;20228;-66
2023/02/07 03:42:38;;;;;;;13.50;7.07;;;;;;;-4.32;97.14;98084.13;5056993;28;20200;-65
2023/02/07 03:45:09;;;;;;;11.40;6.63;;;;;;;-4.38;95.84;98081.72;5056227;28;20576;-66
2023/02/07 03:47:36;;;;;;;13.13;6.13;;;;;;;-4.71;96.18;98085.22;5056806;28;20948;-65
2023/02/07 03:50:02;;;;;;;14.87;6.07;;;;;;;-4.86;96.63;98074.53;5056894;28;20232;-65
2023/02/07 03:52:29;;;;;;;11.27;5.10;;;;;;;-4.88;96.01;98083.97;5056735;28;20212;-66
2023/02/07 03:54:56;;;;;;;11.27;7.00;;;;;;;-4.98;96.37;98089.41;5056043;28;20204;-65
2023/02/07 03:57:23;;;;;;;9.80;4.83;;;;;;;-5.12;97.16;98097.44;5056772;28;20574;-66
2023/02/07 03:59:49;;;;;;;12.20;6.10;;;;;;;-5.11;95.71;98101.72;5056786;28;20228;-68
2023/02/07 04:02:16;;;;;;;13.10;6.57;;;;;;;-4.96;94.71;98103.03;5056773;28;20209;-67
2023/02/07 04:04:42;;;;;;;20.37;6.30;;;;;;;-4.95;95.47;98104.75;5056336;28;20215;-68
2023/02/07 04:07:10;;;;;;;11.03;5.20;;;;;;;-4.94;95.50;98103.88;5056848;28;20209;-69
2023/02/07 04:09:36;;;;;;;17.13;5.77;;;;;;;-5.05;96.90;98113.56;5056100;28;20200;-69
2023/02/07 04:12:05;;;;;;;16.57;5.40;;;;;;;-4.92;95.97;98100.38;5056564;28;20533;-67
2023/02/07 04:14:31;;;;;;;13.53;5.33;;;;;;;-5.14;95.69;98099.22;5056331;28;20666;-68
2023/02/07 04:16:57;;;;;;;10.03;5.20;;;;;;;-5.08;96.43;98104.22;5056382;28;20253;-69
2023/02/07 04:19:24;;;;;;;12.07;5.60;;;;;;;-5.11;98.18;98116.31;5056901;28;20204;-69
2023/02/07 04:21:50;;;;;;;9.23;4.67;;;;;;;-5.02;96.29;98103.22;5056761;28;20227;-68
2023/02/07 04:24:17;;;;;;;9.80;5.40;;;;;;;-4.84;95.61;98102.75;5055537;28;20223;-68
2023/02/07 04:26:43;;;;;;;8.97;5.53;;;;;;;-4.85;94.27;98096.75;5056130;28;20211;-69
2023/02/07 04:29:11;;;;;;;9.87;4.50;;;;;;;-4.74;93.53;98094.75;5057342;28;20261;-66
2023/02/07 04:31:37;;;;;;;17.70;6.60;;;;;;;-4.84;93.00;98085.59;5056011;28;20696;-68
2023/02/07 04:34:04;;;;;;;9.80;5.30;;;;;;;-4.86;92.28;98094.22;5055448;28;20200;-67
2023/02/07 04:36:31;;;;;;;15.10;6.33;;;;;;;-4.86;90.81;98083.94;5056476;28;20235;-66
2023/02/07 04:38:57;;;;;;;7.80;4.77;;;;;;;-4.94;91.54;98075.59;5056509;28;20648;-66
2023/02/07 04:41:24;;;;;;;14.07;6.60;;;;;;;-5.07;92.57;98085.34;5057714;28;20224;-67
2023/02/07 04:43:50;;;;;;;7.57;4.17;;;;;;;-5.12;91.57;98099.19;5059912;28;20320;-66
2023/02/07 04:46:19;;;;;;;17.47;5.87;;;;;;;-4.99;89.91;98091.16;5060470;28;20510;-67
2023/02/07 04:48:47;;;;;;;14.40;4.67;;;;;;;-5.16;89.38;98092.44;5060174;28;20208;-65
2023/02/07 04:51:13;;;;;;;9.40;4.97;;;;;;;-5.16;89.39;98079.59;5060373;28;20277;-66
2023/02/07 04:53:40;;;;;;;6.53;4.50;;;;;;;-5.27;89.28;98081.56;5059423;28;20207;-67
2023/02/07 04:56:07;;;;;;;12.07;6.10;;;;;;;-5.34;89.13;98092.91;5060216;28;20207;-66
2023/02/07 04:58:33;;;;;;;5.43;4.47;;;;;;;-5.56;89.63;98072.91;5060565;28;20211;-66
2023/02/07 05:01:00;;;;;;;10.77;5.40;;;;;;;-5.43;89.20;98075.16;5060405;28;20224;-65
2023/02/07 05:03:27;;;;;;;10.87;5.07;;;;;;;-5.43;87.94;98060.56;5059633;28;20317;-66
2023/02/07 05:05:54;;;;;;;12.50;5.53;;;;;;;-5.63;89.77;98067.06;5059081;28;20212;-65
2023/02/07 05:08:21;;;;;;;4.37;3.93;;;;;;;-5.57;87.95;98084.06;5059967;28;21333;-65
2023/02/07 05:10:51;;;;;;;7.47;4.33;;;;;;;-5.77;87.31;98084.53;5060095;28;20244;-67
2023/02/07 05:13:17;;;;;;;7.87;4.37;;;;;;;-6.05;89.32;98071.53;5059921;28;20201;-66
2023/02/07 05:15:44;;;;;;;7.47;4.57;;;;;;;-5.95;89.71;98079.00;5059521;28;20580;-67
2023/02/07 05:18:10;;;;;;;7.50;4.60;;;;;;;-5.97;89.39;98094.44;5059600;28;20207;-66
2023/02/07 05:20:38;;;;;;;12.13;5.77;;;;;;;-5.97;88.79;98091.88;5059605;28;21110;-66
2023/02/07 05:23:04;;;;;;;8.03;4.10;;;;;;;-6.02;90.09;98098.81;5059864;28;20210;-65
2023/02/07 05:25:31;;;;;;;7.10;4.07;;;;;;;-5.94;90.98;98096.09;5059002;28;20274;-66
2023/02/07 05:27:57;;;;;;;8.20;4.20;;;;;;;-6.08;90.95;98102.38;5058987;28;20200;-65
2023/02/07 05:30:24;;;;;;;10.20;3.30;;;;;;;-6.11;91.25;98098.16;5059501;28;20354;-66
2023/02/07 05:33:05;;;;;;;7.93;4.93;;;;;;;-6.03;90.72;98103.13;5059452;28;20547;-67
2023/02/07 05:35:32;;;;;;;7.03;3.67;;;;;;;-5.96;90.82;98101.25;5058212;28;20207;-66
2023/02/07 05:38:00;;;;;;;9.63;5.30;;;;;;;-5.90;88.85;98097.69;5058796;28;21023;-66
2023/02/07 05:40:27;;;;;;;7.53;3.43;;;;;;;-5.92;86.94;98102.00;5059753;28;20232;-65
2023/02/07 05:42:53;;;;;;;9.03;3.03;;;;;;;-6.08;85.40;98110.06;5060124;28;20303;-66
2023/02/07 05:45:20;;;;;;;8.53;4.70;;;;;;;-6.24;86.13;98121.53;5057844;28;21026;-67
2023/02/07 05:47:46;;;;;;;7.57;4.97;;;;;;;-6.26;87.92;98113.03;5058630;28;20208;-66
2023/02/07 05:50:13;;;;;;;11.57;4.37;;;;;;;-6.19;87.52;98115.44;5059579;28;20227;-67
2023/02/07 05:52:39;;;;;;;10.10;5.00;;;;;;;-6.23;88.29;98107.84;5057877;28;20676;-69
2023/02/07 05:55:09;;;;;;;10.63;4.67;;;;;;;-6.16;86.45;98110.25;5058369;28;20230;-67
2023/02/07 05:57:35;;;;;;;17.13;4.80;;;;;;;-6.42;85.96;98114.22;5059041;28;20287;-66
2023/02/07 06:00:02;;;;;;;4.93;3.50;;;;;;;-6.46;86.22;98116.00;5058980;28;20226;-66
2023/02/07 06:02:28;;;;;;;7.30;4.17;;;;;;;-6.53;86.58;98128.97;5058372;28;20210;-66
2023/02/07 06:04:55;;;;;;;13.73;4.53;;;;;;;-6.48;87.38;98128.00;5058188;28;20251;-66
2023/02/07 06:07:21;;;;;;;5.50;3.23;;;;;;;-6.41;88.57;98118.47;5058842;28;20216;-66
2023/02/07 06:09:48;;;;;;;7.60;3.97;;;;;;;-6.45;87.50;98116.84;5058658;28;20205;-67
2023/02/07 06:12:15;;;;;;;6.53;3.13;;;;;;;-6.40;87.42;98117.59;5059288;28;20211;-69
2023/02/07 06:14:42;;;;;;;7.07;3.43;;;;;;;-6.49;87.27;98112.63;5058158;28;20204;-68
2023/02/07 06:17:08;;;;;;;8.40;4.57;;;;;;;-6.49;88.23;98105.81;5058282;28;20894;-68
2023/02/07 06:19:35;;;;;;;8.37;4.43;;;;;;;-6.53;86.36;98111.88;5058925;28;20207;-68
2023/02/07 06:22:01;;;;;;;8.63;5.77;;;;;;;-6.59;84.96;98108.59;5058820;28;20238;-69
2023/02/07 06:24:28;;;;;;;3.57;2.50;;;;;;;-6.62;84.55;98106.06;5058090;28;20212;-69
2023/02/07 06:26:54;;;;;;;8.90;4.70;;;;;;;-6.71;85.08;98108.81;5058257;28;20203;-67
2023/02/07 06:29:22;;;;;;;5.23;3.10;;;;;;;-6.77;87.55;98108.94;5058113;28;20208;-66
2023/02/07 06:31:48;;;;;;;9.10;4.20;;;;;;;-7.07;88.61;98106.91;5058466;28;20223;-67
2023/02/07 06:34:15;;;;;;;4.53;2.83;;;;;;;-6.83;87.37;98109.03;5057878;28;20289;-65
2023/02/07 06:36:41;;;;;;;6.33;3.93;;;;;;;-6.92;83.13;98104.09;5058610;28;20214;-65
2023/02/07 06:39:08;;;;;;;5.27;4.77;;;;;;;-7.12;84.93;98111.28;5058721;28;20229;-67
2023/02/07 06:41:34;;;;;;;11.53;5.33;;;;;;;-7.18;87.50;98111.41;5057871;28;20318;-65
2023/02/07 06:44:01;;;;;;;6.67;3.87;;;;;;;-7.01;87.05;98108.53;5057971;28;20424;-65
2023/02/07 06:46:28;;;;;;;5.73;3.27;;;;;;;-7.14;85.46;98115.59;5058218;28;20203;-67
2023/02/07 06:48:55;;;;;;;6.00;4.40;;;;;;;-7.13;86.16;98117.28;5057883;28;20210;-66
2023/02/07 06:51:22;;;;;;;7.60;3.50;;;;;;;-7.02;87.40;98125.63;5057469;28;20237;-67
2023/02/07 06:53:48;;;;;;;3.97;2.57;;;;;;;-7.07;87.71;98136.81;5058634;28;20199;-67
2023/02/07 06:56:15;;;;;;;4.30;3.90;;;;;;;-7.03;89.53;98131.59;5058107;28;20202;-66
2023/02/07 06:58:41;;;;;;;5.23;3.33;;;;;;;-6.90;90.47;98138.19;5057490;28;20210;-66
2023/02/07 07:01:08;;;;;;;6.47;3.23;;;;;;;-6.69;92.54;98136.97;5057943;28;20230;-66
2023/02/07 07:03:35;;;;;;;8.07;4.77;;;;;;;-6.49;93.66;98139.13;5058082;28;20206;-66
2023/02/07 07:06:02;;;;;;;6.23;2.73;;;;;;;-6.49;92.93;98133.16;5057774;28;20202;-66
2023/02/07 07:08:28;;;;;;;6.60;4.37;;;;;;;-6.41;91.00;98128.75;5058016;28;20234;-67
2023/02/07 07:10:56;;;;;;;6.80;4.70;;;;;;;-6.41;88.06;98137.25;5057713;28;20274;-66
2023/02/07 07:13:23;;;;;;;5.30;4.23;;;;;;;-6.55;85.22;98128.16;5057725;28;20346;-66
2023/02/07 07:15:49;;;;;;;5.60;3.93;;;;;;;-6.51;86.30;98128.06;5057542;28;20203;-66
2023/02/07 07:18:15;;;;;;;11.03;4.63;;;;;;;-6.42;87.26;98121.91;5057728;28;20214;-65
2023/02/07 07:20:43;;;;;;;4.40;2.97;;;;;;;-6.34;87.75;98122.59;5057334;28;20233;-66
2023/02/07 07:23:09;;;;;;;7.80;4.10;;;;;;;-6.39;87.61;98125.28;5057636;28;20205;-66
2023/02/07 07:25:36;;;;;;;14.63;3.60;;;;;;;-6.26;87.99;98113.88;5056877;28;20207;-66
2023/02/07 07:28:02;;;;;;;9.63;3.87;;;;;;;-6.17;88.48;98117.97;5057803;28;20207;-66
2023/02/07 07:30:30;;;;;;;9.17;5.00;;;;;;;-6.22;86.30;98120.63;5057531;28;20230;-67
2023/02/07 07:32:56;;;;;;;10.63;4.63;;;;;;;-6.22;85.11;98124.91;5057121;28;20306;-67
2023/02/07 07:35:23;;;;;;;8.80;3.67;;;;;;;-6.23;85.59;98136.91;5056536;28;20204;-66
2023/02/07 07:37:50;;;;;;;7.67;4.60;;;;;;;-6.12;87.23;98139.25;5057072;28;20299;-67
2023/02/07 07:40:17;;;;;;;13.43;3.03;;;;;;;-6.29;91.70;98139.56;5056813;28;20601;-67
2023/02/07 07:42:43;;;;;;;7.73;3.87;;;;;;;-6.13;92.09;98132.44;5057220;28;20254;-68
2023/02/07 07:45:12;;;;;;;6.00;4.77;;;;;;;-5.97;93.36;98132.06;5057752;28;20208;-67
2023/02/07 07:47:38;;;;;;;25.23;3.87;;;;;;;-5.72;94.30;98130.63;5056921;28;20657;-67
2023/02/07 07:50:06;;;;;;;5.10;2.30;;;;;;;-5.55;95.00;98131.91;5056548;28;20229;-66
2023/02/07 07:52:33;;;;;;;13.77;4.90;;;;;;;-5.52;96.61;98129.28;5057101;28;20198;-66
2023/02/07 07:55:01;;;;;;;10.23;5.00;;;;;;;-5.48;96.97;98122.38;5056603;28;20285;-67
2023/02/07 07:57:28;;;;;;;8.53;4.63;;;;;;;-5.36;96.12;98118.63;5056799;28;20212;-67
2023/02/07 07:59:55;;;;;;;6.13;3.67;;;;;;;-5.27;96.04;98110.69;5057047;28;20268;-67
2023/02/07 08:02:23;;;;;;;7.80;4.17;;;;;;;-5.43;95.91;98111.09;5056914;28;21052;-66
2023/02/07 08:04:49;;;;;;;9.13;3.50;;;;;;;-5.13;96.94;98111.22;5055661;28;20200;-67
2023/02/07 08:07:16;;;;;;;8.50;4.40;;;;;;;-4.89;95.72;98107.16;5056242;28;20204;-67
2023/02/07 08:09:42;;;;;;;8.87;4.90;;;;;;;-4.83;93.97;98111.25;5056525;28;20207;-66
2023/02/07 08:12:10;;;;;;;7.67;4.60;;;;;;;-4.47;94.10;98117.16;5056588;28;20770;-67
2023/02/07 08:14:36;;;;;;;11.03;4.20;;;;;;;-4.45;92.14;98117.97;5055898;28;20207;-67
2023/02/07 08:17:03;;;;;;;17.60;6.30;;;;;;;-4.38;92.93;98120.31;5056652;28;20211;-67
2023/02/07 08:19:29;;;;;;;9.23;4.77;;;;;;;-4.36;93.14;98123.69;5056333;28;20203;-67
2023/02/07 08:21:56;;;;;;;8.27;4.53;;;;;;;-4.23;92.87;98131.91;5056313;28;20700;-67
2023/02/07 08:24:23;;;;;;;5.87;3.20;;;;;;;-4.21;93.05;98138.72;5056051;28;20205;-67
2023/02/07 08:26:49;;;;;;;10.23;5.27;;;;;;;-4.29;93.42;98139.81;5056259;28;20196;-67
2023/02/07 08:29:17;;;;;;;7.53;4.87;;;;;;;-3.95;93.34;98126.75;5056833;28;20819;-67
2023/02/07 08:31:44;;;;;;;9.20;4.97;;;;;;;-3.94;93.22;98133.59;5056335;28;20223;-67
2023/02/07 08:34:11;;;;;;;10.80;5.07;;;;;;;-3.80;92.31;98141.78;5055739;28;20197;-67
2023/02/07 08:36:38;;;;;;;13.23;6.23;;;;;;;-3.85;92.12;98153.09;5055823;28;20287;-67
2023/02/07 08:39:05;;;;;;;9.10;5.07;;;;;;;-3.96;92.52;98157.72;5056547;28;20208;-68
2023/02/07 08:41:31;;;;;;;15.87;5.87;;;;;;;-3.60;92.27;98150.59;5056549;28;20920;-67
2023/02/07 08:43:57;;;;;;;12.10;5.60;;;;;;;-3.54;92.84;98153.00;5055676;28;20205;-68
2023/02/07 08:46:25;;;;;;;11.33;5.67;;;;;;;-3.57;91.70;98159.97;5056622;28;20201;-68
2023/02/07 08:48:52;;;;;;;10.60;4.70;;;;;;;-3.51;92.05;98165.78;5056607;28;20217;-68
2023/02/07 08:51:18;;;;;;;13.83;5.37;;;;;;;-3.65;92.69;98169.66;5055605;28;20220;-68
2023/02/07 08:53:44;;;;;;;9.77;5.20;;;;;;;-3.82;92.61;98182.16;5055877;28;20212;-68
2023/02/07 08:56:11;;;;;;;11.57;4.77;;;;;;;-3.71;92.90;98172.41;5057055;28;20570;-68
2023/02/07 08:58:38;;;;;;;12.57;5.00;;;;;;;-3.68;93.12;98176.63;5055635;28;20206;-67
2023/02/07 09:01:09;;;;;;;6.20;2.57;;;;;;;-3.84;92.75;98173.66;5055868;28;20245;-67
2023/02/07 09:03:37;;;;;;;13.37;6.40;;;;;;;-3.57;93.27;98168.53;5056177;28;20210;-67
2023/02/07 09:06:04;;;;;;;15.53;4.10;;;;;;;-3.58;92.61;98166.88;5056177;28;20202;-67
2023/02/07 09:08:31;;;;;;;11.87;5.27;;;;;;;-3.63;92.84;98164.47;5055802;28;20217;-68
2023/02/07 09:10:57;;;;;;;12.03;5.47;;;;;;;-3.68;92.16;98167.16;5056450;28;20227;-67
2023/02/07 09:13:24;;;;;;;10.70;6.73;;;;;;;-3.58;92.52;98174.59;5056038;28;20213;-68
2023/02/07 09:15:54;;;;;;;15.60;6.33;;;;;;;-3.44;92.30;98159.53;5055407;28;20202;-67
2023/02/07 09:18:20;;;;;;;14.33;6.30;;;;;;;-3.50;92.67;98151.16;5055848;28;20293;-67
2023/02/07 09:20:49;;;;;;;13.50;6.13;;;;;;;-3.23;90.99;98148.56;5055834;28;20749;-68
2023/02/07 09:23:18;;;;;;;15.93;6.37;;;;;;;-3.10;90.92;98149.88;5055817;28;20224;-67
2023/02/07 09:25:46;;;;;;;9.40;5.03;;;;;;;-2.86;89.95;98151.66;5055485;28;20203;-68
2023/02/07 09:28:12;;;;;;;9.87;5.53;;;;;;;-2.92;89.39;98157.84;5057324;28;20293;-67
2023/02/07 09:30:40;;;;;;;13.53;5.80;;;;;;;-2.89;89.27;98156.91;5059201;28;20232;-67
2023/02/07 09:33:06;;;;;;;12.03;5.63;;;;;;;-2.76;89.18;98168.50;5059364;28;20204;-69
2023/02/07 09:35:37;;;;;;;20.27;6.47;;;;;;;-2.64;88.43;98162.94;5058976;28;20210;-67
2023/02/07 09:38:04;;;;;;;11.63;5.07;;;;;;;-2.60;89.27;98159.38;5059105;28;21247;-67
2023/02/07 09:40:34;;;;;;;11.63;5.73;;;;;;;-2.86;90.50;98165.41;5059331;28;20227;-68
2023/02/07 09:43:10;;;;;;;8.53;4.93;;;;;;;-2.50;89.23;98171.06;5059372;28;20230;-67
2023/02/07 09:45:40;;;;;;;13.23;4.97;;;;;;;-2.53;90.34;98179.75;5057944;28;20218;-68
2023/02/07 09:48:14;;;;;;;13.63;6.63;;;;;;;-2.47;89.88;98173.53;5058722;28;20199;-68
2023/02/07 09:50:48;;;;;;;12.20;5.50;;;;;;;-2.51;89.63;98167.63;5058899;28;20238;-68
2023/02/07 09:53:19;;;;;;;8.80;4.80;;;;;;;-2.48;89.76;98175.28;5059431;28;20571;-68
2023/02/07 09:55:49;;;;;;;20.70;6.17;;;;;;;-2.62;90.86;98171.47;5058610;28;20200;-67
2023/02/07 09:58:20;;;;;;;14.90;5.87;;;;;;;-2.55;90.39;98167.81;5059074;28;20286;-68
2023/02/07 10:00:52;;;;;;;8.77;5.10;;;;;;;-2.41;90.15;98167.28;5059311;28;20240;-68
2023/02/07 10:03:21;;;;;;;13.17;5.60;;;;;;;-2.12;89.09;98158.53;5059013;28;20224;-68
2023/02/07 10:05:53;;;;;;;8.90;4.87;;;;;;;-2.06;88.40;98164.31;5058458;28;20204;-68
2023/02/07 10:08:21;;;;;;;10.63;4.93;;;;;;;-2.01;88.57;98170.16;5058060;28;21070;-68
2023/02/07 10:10:59;;;;;;;10.80;5.10;;;;;;;-2.20;88.81;98171.69;5058787;28;20234;-68
2023/02/07 10:13:45;;;;;;;11.67;6.57;;;;;;;-1.86;88.70;98172.16;5059215;28;20218;-68
2023/02/07 10:16:22;;;;;;;17.50;7.50;;;;;;;-1.85;89.63;98173.03;5059080;28;20234;-68
2023/02/07 10:18:55;;;;;;;11.90;6.23;;;;;;;-1.61;88.64;98172.97;5057969;28;20207;-68
2023/02/07 10:21:32;;;;;;;16.00;6.43;;;;;;;-1.64;87.80;98167.91;5058860;28;20311;-68
2023/02/07 10:24:19;;;;;;;14.83;5.97;;;;;;;-1.23;86.79;98166.25;5058384;28;20204;-68
2023/02/07 10:26:52;;;;;;;15.83;6.13;;;;;;;-1.53;88.39;98165.75;5058428;28;20208;-68
2023/02/07 10:29:51;;;;;;;14.73;6.43;;;;;;;-1.53;87.47;98158.00;5058883;28;20219;-68
2023/02/07 10:32:21;;;;;;;14.27;6.47;;;;;;;-1.34;88.11;98146.88;5058581;28;20207;-68
2023/02/07 10:34:50;;;;;;;17.20;7.27;;;;;;;-1.27;86.67;98139.72;5057964;28;20216;-68
2023/02/07 10:37:19;;;;;;;14.97;6.50;;;;;;;-1.22;87.45;98138.66;5058869;28;20809;-68
2023/02/07 10:39:54;;;;;;;15.03;6.20;;;;;;;-0.78;86.18;98133.38;5058373;28;20218;-68
2023/02/07 10:42:22;;;;;;;20.17;7.30;;;;;;;-0.78;83.92;98138.53;5058507;28;20742;-68
2023/02/07 10:44:49;;;;;;;20.70;6.77;;;;;;;-0.99;85.90;98143.78;5057394;28;20250;-68
2023/02/07 10:47:17;;;;;;;13.57;6.70;;;;;;;-0.56;84.55;98139.34;5057202;28;21054;-68
2023/02/07 10:49:46;;;;;;;13.97;6.80;;;;;;;-0.41;85.40;98141.28;5057407;28;20212;-68
2023/02/07 10:52:23;;;;;;;19.73;6.83;;;;;;;-0.19;83.75;98144.63;5057953;28;20193;-68
2023/02/07 10:54:54;;;;;;;18.03;7.13;;;;;;;-0.25;84.45;98144.94;5057287;28;20691;-68
2023/02/07 10:57:21;;;;;;;8.13;3.40;;;;;;;-0.53;84.13;98147.00;5058012;28;20203;-68
2023/02/07 10:59:49;;;;;;;15.20;6.80;;;;;;;-0.47;85.34;98144.13;5057984;28;20214;-69
2023/02/07 11:02:43;;;;;;;20.93;6.53;;;;;;;-0.38;85.53;98154.09;5057327;28;20228;-68
2023/02/07 11:05:30;;;;;;;15.00;7.40;;;;;;;-0.20;85.12;98148.16;5056856;28;20204;-68
2023/02/07 11:07:59;;;;;;;14.97;7.27;;;;;;;-0.34;86.66;98153.09;5057287;28;20212;-68
2023/02/07 11:10:32;;;;;;;12.87;5.07;;;;;;;-0.29;87.12;98154.56;5057792;28;20224;-68
2023/02/07 11:13:00;;;;;;;12.50;6.13;;;;;;;-0.27;84.84;98163.09;5057193;28;20203;-68
2023/02/07 11:15:34;;;;;;;14.50;6.83;;;;;;;-0.64;88.64;98154.34;5057563;28;20202;-68
2023/02/07 11:18:01;;;;;;;12.80;5.17;;;;;;;-0.28;86.59;98166.63;5057507;28;20326;-68
2023/02/07 11:20:32;;;;;;;17.10;6.23;;;;;;;-0.24;85.18;98172.47;5056848;28;20220;-68
2023/02/07 11:22:58;;;;;;;14.73;6.07;;;;;;;-0.02;84.20;98173.28;5057276;28;20270;-68
2023/02/07 11:25:31;;;;;;;14.43;5.63;;;;;;;-0.09;85.30;98172.66;5056533;28;20205;-68
2023/02/07 11:27:59;;;;;;;11.87;5.70;;;;;;;-0.26;85.96;98167.38;5054841;28;20545;-68
2023/02/07 11:30:28;;;;;;;14.10;6.60;;;;;;;0.00;86.59;98162.75;5055487;28;20243;-68
2023/02/07 11:32:58;;;;;;;14.47;6.47;;;;;;;-0.20;85.76;98167.13;5056782;28;20580;-68
2023/02/07 11:35:24;;;;;;;11.50;5.77;;;;;;;-0.17;86.85;98168.75;5056518;28;20595;-67